Time;durP1;ratioP1;P1;durP2;ratioP2;P2;SDS_P1;SDS_P2;PMS_P1;PMS_P2;Temp;Humidity;BMP_temperature;BMP_pressure;BME280_temperature;BME280_humidity;BME280_pressure;Samples;Min_cycle;Max_cycle;Signal;HPM_P1;HPM_P2
2022/04/02 00:00:46;;;;;;;11.43;3.03;;;;;;;;;;5112209;28;20441;-71
2022/04/02 00:03:12;;;;;;;9.82;2.97;;;;;;;;;;5112936;28;20031;-72
2022/04/02 00:05:37;;;;;;;11.65;2.63;;;11.70;93.00;;;;;;5112571;28;20027;-72
2022/04/02 00:08:04;;;;;;;11.90;2.50;;;;;;;;;;5112458;28;20108;-72
2022/04/02 00:10:30;;;;;;;11.20;2.33;;;11.70;94.40;;;;;;5112088;28;20031;-72
2022/04/02 00:12:56;;;;;;;12.05;2.35;;;11.70;94.10;;;;;;5111832;28;20112;-72
2022/04/02 00:15:22;;;;;;;10.75;2.40;;;11.70;95.20;;;;;;5112255;28;20114;-71
2022/04/02 00:17:48;;;;;;;9.82;2.10;;;11.70;95.70;;;;;;5112178;28;20031;-71
2022/04/02 00:20:14;;;;;;;9.38;2.28;;;11.70;96.30;;;;;;5112105;28;20284;-72
2022/04/02 00:23:35;;;;;;;8.20;2.38;;;11.70;96.50;;;;;;5112013;28;20039;-72
2022/04/02 00:25:29;;;;;;;11.13;2.92;;;11.70;95.30;;;;;;5111678;28;20490;-72
2022/04/02 00:27:54;;;;;;;9.48;2.45;;;11.60;95.60;;;;;;5111886;28;20426;-72
2022/04/02 00:30:20;;;;;;;10.48;2.17;;;11.70;95.80;;;;;;5113020;28;20038;-72
2022/04/02 00:32:46;;;;;;;12.70;2.40;;;;;;;;;;5111510;28;20134;-72
2022/04/02 00:35:12;;;;;;;10.25;2.70;;;11.60;96.40;;;;;;5111780;28;20085;-72
2022/04/02 00:37:37;;;;;;;9.73;2.67;;;11.50;99.30;;;;;;5111766;28;20403;-72
2022/04/02 00:40:03;;;;;;;13.52;2.22;;;;;;;;;;5111696;28;20040;-72
2022/04/02 00:42:30;;;;;;;10.13;2.75;;;;;;;;;;5112162;28;20027;-72
2022/04/02 00:44:56;;;;;;;9.45;2.35;;;;;;;;;;5111695;28;20036;-71
2022/04/02 00:47:22;;;;;;;10.25;3.00;;;;;;;;;;5111640;28;20024;-72
2022/04/02 00:49:51;;;;;;;8.13;2.15;;;;;;;;;;5112397;28;20039;-72
2022/04/02 00:52:17;;;;;;;8.27;2.17;;;;;;;;;;5111546;28;20043;-71
2022/04/02 00:54:43;;;;;;;12.25;2.72;;;;;;;;;;5111245;28;20032;-72
2022/04/02 00:57:09;;;;;;;11.25;2.58;;;;;;;;;;5110611;28;20357;-72
2022/04/02 00:59:35;;;;;;;13.40;2.40;;;11.50;99.90;;;;;;5108097;28;20088;-72
2022/04/02 01:02:01;;;;;;;11.55;3.20;;;11.50;99.20;;;;;;5108760;28;20036;-72
2022/04/02 01:04:27;;;;;;;9.02;2.40;;;11.50;99.30;;;;;;5109953;28;20384;-73
2022/04/02 01:06:53;;;;;;;6.20;1.90;;;11.40;99.70;;;;;;5110532;28;20100;-72
2022/04/02 01:09:19;;;;;;;9.80;2.10;;;11.40;99.80;;;;;;5110829;28;20480;-72
2022/04/02 01:11:45;;;;;;;16.70;3.13;;;;;;;;;;5109565;28;20474;-72
2022/04/02 01:14:12;;;;;;;9.70;2.90;;;;;;;;;;5093038;28;20392;-72
2022/04/02 01:16:38;;;;;;;12.27;2.30;;;;;;;;;;5110656;28;20493;-71
2022/04/02 01:19:05;;;;;;;7.57;2.33;;;;;;;;;;5110313;28;20161;-72
2022/04/02 01:21:31;;;;;;;10.77;2.42;;;;;;;;;;5110379;28;20035;-71
2022/04/02 01:23:58;;;;;;;13.68;2.50;;;;;;;;;;5110331;28;20039;-71
2022/04/02 01:26:25;;;;;;;8.30;2.40;;;;;;;;;;5114615;28;20119;-72
2022/04/02 01:28:55;;;;;;;8.75;2.55;;;;;;;;;;5114872;28;20104;-71
2022/04/02 01:31:22;;;;;;;14.93;2.60;;;;;;;;;;5114511;28;20035;-71
2022/04/02 01:33:49;;;;;;;8.43;2.17;;;;;;;;;;5114759;28;20051;-71
2022/04/02 01:36:15;;;;;;;8.85;2.33;;;;;;;;;;5114365;28;20070;-72
2022/04/02 01:38:41;;;;;;;10.80;2.13;;;;;;;;;;5114596;28;20063;-71
2022/04/02 01:41:07;;;;;;;6.40;2.00;;;;;;;;;;5115037;28;20046;-71
2022/04/02 01:43:34;;;;;;;10.68;2.88;;;;;;;;;;5114029;28;20032;-72
2022/04/02 01:46:00;;;;;;;10.00;2.30;;;;;;;;;;5115066;28;20031;-71
2022/04/02 01:48:27;;;;;;;10.05;2.65;;;;;;;;;;5114725;28;20043;-73
2022/04/02 01:50:53;;;;;;;9.32;2.10;;;11.30;99.90;;;;;;5114408;28;20093;-71
2022/04/02 01:53:20;;;;;;;15.48;2.42;;;11.40;98.40;;;;;;5114235;28;20563;-71
2022/04/02 01:55:46;;;;;;;10.90;2.92;;;11.40;97.80;;;;;;5114814;28;20032;-72
2022/04/02 01:58:13;;;;;;;18.38;2.78;;;11.30;97.40;;;;;;5114372;28;20038;-71
2022/04/02 02:00:39;;;;;;;12.43;2.45;;;11.30;97.30;;;;;;5112786;28;20032;-71
2022/04/02 02:03:06;;;;;;;15.07;2.38;;;11.40;96.90;;;;;;5114299;28;20157;-71
2022/04/02 02:05:33;;;;;;;11.45;2.50;;;11.40;96.70;;;;;;5114066;28;20115;-71
2022/04/02 02:07:58;;;;;;;10.90;2.20;;;11.40;96.60;;;;;;5114390;28;20050;-71
2022/04/02 02:10:25;;;;;;;8.07;1.98;;;11.40;96.50;;;;;;5114255;28;20110;-72
2022/04/02 02:12:51;;;;;;;14.35;2.75;;;11.40;96.90;;;;;;5114325;28;20048;-71
2022/04/02 02:15:17;;;;;;;9.30;2.08;;;11.30;97.30;;;;;;5114276;28;20085;-71
2022/04/02 02:17:50;;;;;;;17.63;2.47;;;11.30;98.30;;;;;;5114424;28;20497;-71
2022/04/02 02:20:17;;;;;;;10.98;2.15;;;11.20;98.00;;;;;;5114914;28;20040;-71
2022/04/02 02:22:44;;;;;;;9.80;2.28;;;11.20;98.40;;;;;;5114984;28;20106;-71
2022/04/02 02:25:12;;;;;;;12.70;2.53;;;11.10;98.70;;;;;;5115328;28;20563;-71
2022/04/02 02:27:39;;;;;;;12.27;2.40;;;11.10;98.90;;;;;;5115319;28;20066;-72
2022/04/02 02:30:07;;;;;;;14.68;2.65;;;11.10;99.20;;;;;;5114913;28;20111;-71
2022/04/02 02:32:36;;;;;;;8.52;2.30;;;11.10;99.40;;;;;;5114680;28;20048;-71
2022/04/02 02:38:06;;;;;;;9.73;2.35;;;11.10;99.70;;;;;;5115433;28;20057;-71
2022/04/02 02:40:33;;;;;;;13.27;2.70;;;11.10;99.90;;;;;;5114955;28;20032;-72
2022/04/02 02:42:58;;;;;;;13.30;3.30;;;11.10;99.90;;;;;;5114578;28;20035;-71
2022/04/02 02:45:24;;;;;;;10.25;2.35;;;11.10;99.90;;;;;;5114814;28;20383;-71
2022/04/02 02:47:51;;;;;;;10.43;2.75;;;11.10;99.90;;;;;;5114469;28;20081;-71
2022/04/02 02:50:17;;;;;;;8.70;2.25;;;11.10;99.90;;;;;;5114442;28;20122;-71
2022/04/02 02:52:43;;;;;;;13.35;2.22;;;11.10;99.90;;;;;;5114434;28;20066;-73
2022/04/02 02:55:09;;;;;;;5.53;2.03;;;11.10;99.90;;;;;;5114393;28;20453;-71
2022/04/02 02:57:42;;;;;;;9.05;2.33;;;11.10;99.90;;;;;;5114253;28;20024;-71
2022/04/02 03:00:09;;;;;;;9.48;1.98;;;11.00;99.90;;;;;;5114758;28;20093;-71
2022/04/02 03:02:37;;;;;;;12.15;2.42;;;11.10;99.90;;;;;;5114675;28;20024;-71
2022/04/02 03:05:16;;;;;;;12.82;2.38;;;11.00;99.90;;;;;;5114392;28;20055;-71
2022/04/02 03:07:50;;;;;;;10.95;2.80;;;11.00;99.90;;;;;;5114157;28;20036;-72
2022/04/02 03:10:27;;;;;;;6.68;2.20;;;11.00;99.90;;;;;;5113919;28;20486;-72
2022/04/02 03:12:55;;;;;;;7.93;2.38;;;11.00;99.90;;;;;;5113918;28;20039;-71
2022/04/02 03:15:22;;;;;;;6.25;2.13;;;;;;;;;;5114106;28;20036;-71
2022/04/02 03:17:49;;;;;;;6.90;2.28;;;;;;;;;;5114032;28;20083;-71
2022/04/02 03:20:17;;;;;;;13.02;3.40;;;;;;;;;;5113838;28;20035;-71
2022/04/02 03:22:45;;;;;;;12.93;2.45;;;;;;;;;;5113628;28;20081;-71
2022/04/02 03:25:23;;;;;;;10.88;2.65;;;;;;;;;;5113928;28;20019;-71
2022/04/02 03:27:50;;;;;;;11.85;3.00;;;;;;;;;;5113732;28;20031;-72
2022/04/02 03:30:18;;;;;;;10.90;2.83;;;;;;;;;;5113639;28;20054;-71
2022/04/02 03:32:46;;;;;;;6.72;2.50;;;;;;;;;;5113571;28;20088;-71
2022/04/02 03:35:14;;;;;;;10.43;2.35;;;;;;;;;;5113994;28;20040;-71
2022/04/02 03:37:41;;;;;;;8.63;3.65;;;;;;;;;;5113769;28;20044;-71
2022/04/02 03:40:08;;;;;;;10.13;3.72;;;;;;;;;;5113599;28;20031;-71
2022/04/02 03:42:34;;;;;;;10.85;3.10;;;;;;;;;;5113690;28;20128;-72
2022/04/02 03:45:00;;;;;;;10.90;2.95;;;;;;;;;;5113453;28;20154;-72
2022/04/02 03:47:27;;;;;;;10.13;2.22;;;;;;;;;;5113340;28;20042;-71
2022/04/02 03:49:53;;;;;;;7.93;2.00;;;;;;;;;;5113357;28;20043;-72
2022/04/02 03:52:19;;;;;;;8.20;2.30;;;;;;;;;;5113715;28;20047;-71
2022/04/02 03:54:45;;;;;;;5.97;1.85;;;;;;;;;;5113670;28;20488;-71
2022/04/02 03:57:13;;;;;;;5.40;1.55;;;;;;;;;;5113253;28;20348;-72
2022/04/02 03:59:40;;;;;;;9.75;2.22;;;;;;;;;;5113184;28;20032;-72
2022/04/02 04:02:07;;;;;;;17.10;1.90;;;10.60;92.50;;;;;;5112937;28;20032;-72
2022/04/02 04:04:33;;;;;;;3.38;1.83;;;10.50;93.90;;;;;;5112943;28;20494;-72
2022/04/02 04:06:59;;;;;;;5.15;1.60;;;10.40;96.80;;;;;;5113088;28;20046;-72
2022/04/02 04:09:25;;;;;;;7.93;4.97;;;10.30;98.10;;;;;;5112717;28;20399;-72
2022/04/02 04:11:51;;;;;;;6.63;3.10;;;10.20;96.60;;;;;;5113294;28;20105;-72
2022/04/02 04:14:17;;;;;;;9.32;2.10;;;10.10;98.80;;;;;;5112851;28;20039;-73
2022/04/02 04:16:43;;;;;;;4.80;1.75;;;10.10;94.70;;;;;;5112698;28;20032;-72
2022/04/02 04:19:10;;;;;;;7.25;1.77;;;10.10;95.00;;;;;;5112855;28;20042;-72
2022/04/02 04:21:36;;;;;;;6.88;1.75;;;10.10;94.90;;;;;;5112548;28;20035;-72
2022/04/02 04:24:03;;;;;;;3.53;1.60;;;10.10;95.50;;;;;;5112247;28;20533;-72
2022/04/02 04:26:29;;;;;;;4.30;1.50;;;10.10;96.20;;;;;;5112897;28;20035;-72
2022/04/02 04:28:54;;;;;;;5.30;1.50;;;10.00;96.60;;;;;;5112061;28;20031;-72
2022/04/02 04:31:20;;;;;;;6.20;1.80;;;10.00;97.30;;;;;;5112327;28;20039;-72
2022/04/02 04:33:47;;;;;;;4.87;1.60;;;9.90;98.10;;;;;;5111975;28;20116;-72
2022/04/02 04:36:18;;;;;;;7.95;2.20;;;10.00;95.30;;;;;;5112027;28;20020;-71
2022/04/02 04:38:45;;;;;;;3.88;1.83;;;9.90;96.80;;;;;;5111931;28;20039;-72
2022/04/02 04:41:11;;;;;;;8.10;1.80;;;9.80;96.90;;;;;;5110780;28;20476;-72
2022/04/02 04:43:37;;;;;;;5.07;2.07;;;9.80;97.10;;;;;;5112152;28;20371;-72
2022/04/02 04:46:03;;;;;;;8.67;2.00;;;;;;;;;;5111470;28;20031;-72
2022/04/02 04:48:29;;;;;;;7.27;2.30;;;9.70;93.00;;;;;;5110726;28;20110;-72
2022/04/02 04:50:55;;;;;;;6.83;2.20;;;9.70;93.40;;;;;;5109707;28;20042;-72
2022/04/02 04:53:21;;;;;;;8.43;2.10;;;9.70;93.40;;;;;;5109916;28;20480;-72
2022/04/02 04:55:47;;;;;;;5.97;2.07;;;9.70;93.40;;;;;;5110687;28;20392;-72
2022/04/02 04:58:13;;;;;;;5.47;1.80;;;9.70;93.40;;;;;;5110555;28;20031;-72
2022/04/02 05:00:40;;;;;;;8.90;2.00;;;9.80;93.40;;;;;;5112353;28;20038;-71
2022/04/02 05:03:08;;;;;;;3.80;1.80;;;9.70;93.50;;;;;;5115394;28;20422;-72
2022/04/02 05:05:34;;;;;;;5.63;2.43;;;9.80;93.40;;;;;;5116195;28;20044;-72
2022/04/02 05:08:01;;;;;;;6.53;2.20;;;9.80;93.40;;;;;;5115737;28;20043;-72
2022/04/02 05:10:27;;;;;;;7.97;2.20;;;9.80;93.30;;;;;;5115863;28;20034;-72
2022/04/02 05:12:54;;;;;;;7.50;2.47;;;9.80;93.20;;;;;;5115667;28;20043;-72
2022/04/02 05:15:19;;;;;;;5.33;1.60;;;9.80;93.20;;;;;;5115496;28;20039;-72
2022/04/02 05:17:46;;;;;;;6.37;2.53;;;9.80;93.10;;;;;;5115791;28;20499;-72
2022/04/02 05:20:13;;;;;;;2.37;1.40;;;9.80;93.00;;;;;;5115477;28;20066;-71
2022/04/02 05:22:39;;;;;;;6.57;1.57;;;9.80;92.90;;;;;;5115550;28;20376;-72
2022/04/02 05:25:05;;;;;;;3.33;1.60;;;9.80;93.00;;;;;;5115156;28;20035;-72
2022/04/02 05:27:32;;;;;;;4.93;1.67;;;9.80;93.00;;;;;;5115096;28;20046;-72
2022/04/02 05:29:58;;;;;;;5.53;2.15;;;9.80;93.10;;;;;;5115584;28;20071;-72
2022/04/02 05:32:24;;;;;;;4.70;1.70;;;9.70;93.10;;;;;;5115541;28;20079;-72
2022/04/02 05:34:49;;;;;;;5.23;1.80;;;9.80;93.60;;;;;;5115964;28;20031;-72
2022/04/02 05:37:15;;;;;;;5.53;1.80;;;9.70;93.30;;;;;;5115491;28;20407;-72
2022/04/02 05:39:43;;;;;;;6.80;2.37;;;9.70;93.40;;;;;;5115464;28;20091;-72
2022/04/02 05:42:11;;;;;;;5.35;1.90;;;9.80;93.50;;;;;;5115696;28;20028;-72
2022/04/02 05:44:37;;;;;;;2.30;1.37;;;9.70;93.50;;;;;;5115593;28;20047;-72
2022/04/02 05:47:02;;;;;;;4.65;1.70;;;9.70;93.50;;;;;;5115350;28;20027;-71
2022/04/02 05:49:28;;;;;;;3.40;1.60;;;9.70;93.70;;;;;;5115103;28;20315;-73
2022/04/02 05:51:54;;;;;;;4.35;1.90;;;9.80;94.00;;;;;;5115024;28;20487;-72
2022/04/02 05:54:20;;;;;;;4.10;1.63;;;9.80;93.90;;;;;;5115746;28;20077;-72
2022/04/02 05:56:45;;;;;;;4.45;1.40;;;9.80;93.90;;;;;;5115115;28;20035;-72
2022/04/02 05:59:11;;;;;;;3.07;1.27;;;9.70;93.50;;;;;;5115364;28;20430;-72
2022/04/02 06:01:37;;;;;;;2.85;1.38;;;9.80;93.90;;;;;;5115183;28;20054;-72
2022/04/02 06:04:03;;;;;;;7.43;4.53;;;9.80;93.90;;;;;;5114825;28;20503;-72
2022/04/02 06:06:32;;;;;;;4.45;2.35;;;9.80;93.90;;;;;;5114818;28;20035;-72
2022/04/02 06:08:58;;;;;;;2.38;1.23;;;9.80;93.80;;;;;;5114889;28;20081;-72
2022/04/02 06:11:24;;;;;;;3.63;1.30;;;9.80;93.80;;;;;;5114271;28;20110;-72
2022/04/02 06:13:50;;;;;;;2.00;1.43;;;9.90;93.50;;;;;;5115089;28;20472;-72
2022/04/02 06:16:16;;;;;;;3.45;1.73;;;9.80;93.20;;;;;;5115007;28;20080;-72
2022/04/02 06:18:43;;;;;;;3.13;1.50;;;9.80;92.10;;;;;;5114891;28;20369;-72
2022/04/02 06:21:11;;;;;;;3.15;1.05;;;9.80;92.30;;;;;;5114803;28;20036;-72
2022/04/02 06:23:37;;;;;;;2.88;1.58;;;9.80;92.10;;;;;;5114490;28;20049;-72
2022/04/02 06:26:03;;;;;;;3.23;1.10;;;9.70;92.10;;;;;;5115239;28;20042;-72
2022/04/02 06:28:29;;;;;;;3.22;1.50;;;9.80;96.60;;;;;;5115703;28;20035;-72
2022/04/02 06:30:56;;;;;;;2.13;1.17;;;9.70;96.20;;;;;;5115533;28;20035;-71
2022/04/02 06:33:22;;;;;;;5.07;1.53;;;9.70;96.30;;;;;;5112725;28;20051;-72
2022/04/02 06:35:47;;;;;;;5.83;3.80;;;9.60;96.30;;;;;;5114144;28;20034;-71
2022/04/02 06:38:13;;;;;;;7.23;5.00;;;9.60;96.50;;;;;;5113917;28;20640;-71
2022/04/02 06:40:39;;;;;;;7.20;4.93;;;9.50;96.70;;;;;;5113589;28;20039;-73
2022/04/02 06:43:05;;;;;;;8.00;5.33;;;9.50;98.40;;;;;;5112738;28;20035;-72
2022/04/02 06:45:31;;;;;;;6.70;5.50;;;9.60;99.90;;;;;;5113757;28;20104;-73
2022/04/02 06:47:57;;;;;;;8.53;6.53;;;;;;;;;;5114019;28;20486;-72
2022/04/02 06:50:23;;;;;;;6.97;5.43;;;9.40;99.90;;;;;;5114154;28;20060;-71
2022/04/02 06:52:48;;;;;;;7.77;5.83;;;9.50;99.90;;;;;;5110273;28;20071;-72
2022/04/02 06:55:15;;;;;;;9.80;5.50;;;9.50;99.90;;;;;;5113173;28;20063;-72
2022/04/02 06:57:54;;;;;;;7.13;4.80;;;9.50;99.90;;;;;;5113501;28;20074;-72
2022/04/02 07:00:20;;;;;;;7.93;5.10;;;9.50;99.90;;;;;;5113306;28;20024;-72
2022/04/02 07:02:47;;;;;;;7.80;4.87;;;9.50;99.90;;;;;;5114678;28;20035;-71
2022/04/02 07:05:15;;;;;;;6.17;4.90;;;;;;;;;;5114646;28;20039;-72
2022/04/02 07:07:41;;;;;;;5.37;4.60;;;9.50;99.90;;;;;;5114274;28;20104;-72
2022/04/02 07:10:08;;;;;;;6.53;4.40;;;9.40;99.90;;;;;;5114109;28;20110;-72
2022/04/02 07:12:37;;;;;;;8.27;4.43;;;9.50;99.90;;;;;;5114631;28;20048;-72
2022/04/02 07:15:04;;;;;;;7.17;4.83;;;9.50;99.90;;;;;;5114476;28;20028;-72
2022/04/02 07:17:30;;;;;;;6.37;4.73;;;9.40;99.90;;;;;;5114262;28;20035;-73
2022/04/02 07:19:57;;;;;;;7.47;4.80;;;9.40;99.90;;;;;;5114532;28;20024;-72
2022/04/02 07:22:24;;;;;;;8.37;4.87;;;9.40;99.60;;;;;;5113617;28;20039;-72
2022/04/02 07:24:52;;;;;;;8.87;5.20;;;9.40;99.60;;;;;;5114745;28;20043;-73
2022/04/02 07:27:24;;;;;;;8.80;6.00;;;9.40;99.60;;;;;;5114440;28;20032;-72
2022/04/02 07:29:52;;;;;;;10.67;6.77;;;9.30;98.90;;;;;;5114337;28;20032;-72
2022/04/02 07:32:19;;;;;;;8.85;6.45;;;9.30;98.80;;;;;;5114143;28;20131;-72
2022/04/02 07:34:44;;;;;;;11.10;6.27;;;9.30;98.90;;;;;;5113876;28;20113;-72
2022/04/02 07:37:49;;;;;;;7.97;5.70;;;9.40;98.90;;;;;;5113279;28;20027;-71
2022/04/02 07:40:35;;;;;;;8.53;5.27;;;9.30;98.80;;;;;;5107586;28;20110;-72
2022/04/02 07:43:03;;;;;;;15.10;6.97;;;9.40;98.80;;;;;;5113989;28;20032;-72
2022/04/02 07:45:35;;;;;;;11.60;6.13;;;9.30;98.90;;;;;;5114142;28;20038;-72
2022/04/02 07:48:06;;;;;;;15.75;5.38;;;9.40;98.50;;;;;;5113801;28;20035;-72
2022/04/02 07:50:33;;;;;;;11.47;4.90;;;9.30;98.10;;;;;;5112301;28;20042;-71
2022/04/02 07:52:59;;;;;;;9.00;4.70;;;9.30;96.90;;;;;;5111967;28;20544;-71
2022/04/02 07:55:29;;;;;;;11.63;4.53;;;9.30;96.50;;;;;;5114313;28;20028;-71
2022/04/02 07:58:01;;;;;;;9.63;4.47;;;9.30;96.40;;;;;;5114128;28;20044;-72
2022/04/02 08:00:28;;;;;;;11.95;4.90;;;9.30;96.30;;;;;;5113746;28;20034;-72
2022/04/02 08:02:54;;;;;;;8.83;4.83;;;9.20;96.20;;;;;;5095463;28;20434;-72
2022/04/02 08:05:21;;;;;;;10.90;4.97;;;9.20;96.40;;;;;;5113775;28;20032;-72
2022/04/02 08:07:52;;;;;;;10.07;4.43;;;9.20;96.50;;;;;;5113830;28;20488;-72
2022/04/02 08:10:20;;;;;;;12.27;4.97;;;9.20;96.70;;;;;;5113786;28;20059;-72
2022/04/02 08:12:46;;;;;;;12.47;4.33;;;9.20;97.00;;;;;;5113779;28;20047;-72
2022/04/02 08:15:16;;;;;;;11.73;4.20;;;9.20;97.00;;;;;;5113892;28;20063;-72
2022/04/02 08:17:43;;;;;;;9.30;4.27;;;9.20;97.00;;;;;;5113607;28;20032;-72
2022/04/02 08:20:10;;;;;;;12.23;4.47;;;9.30;96.90;;;;;;5113195;28;20062;-72
2022/04/02 08:22:37;;;;;;;12.07;5.10;;;9.20;96.90;;;;;;5113640;28;20040;-72
2022/04/02 08:25:04;;;;;;;11.73;4.37;;;9.20;96.90;;;;;;5113457;28;20043;-71
2022/04/02 08:27:54;;;;;;;10.40;4.67;;;9.30;96.70;;;;;;5113740;28;20495;-72
2022/04/02 08:30:44;;;;;;;7.47;3.50;;;9.30;96.30;;;;;;5092259;28;20034;-71
2022/04/02 08:33:25;;;;;;;4.63;2.80;;;9.30;96.70;;;;;;5113036;28;20039;-72
2022/04/02 08:36:23;;;;;;;1.97;1.50;;;9.30;96.90;;;;;;5113346;28;20034;-72
2022/04/02 08:38:49;;;;;;;4.73;1.20;;;;;;;;;;5113326;28;20063;-72
2022/04/02 08:41:39;;;;;;;2.97;1.40;;;8.90;99.90;;;;;;5113450;28;20078;-71
2022/04/02 08:44:24;;;;;;;1.23;0.60;;;;;;;;;;5113658;28;20036;-72
2022/04/02 08:47:04;;;;;;;1.03;0.70;;;8.90;90.70;;;;;;5113539;28;20059;-72
2022/04/02 08:49:36;;;;;;;4.50;0.73;;;8.90;90.70;;;;;;5113443;28;20096;-71
2022/04/02 08:52:04;;;;;;;1.23;0.90;;;8.80;90.60;;;;;;5113311;28;20122;-71
2022/04/02 08:54:45;;;;;;;2.10;0.93;;;8.80;90.20;;;;;;5113385;28;20114;-72
2022/04/02 08:57:28;;;;;;;1.80;1.20;;;8.70;89.90;;;;;;5113360;28;20039;-71
2022/04/02 09:00:09;;;;;;;3.20;0.93;;;8.60;89.30;;;;;;5113308;28;20065;-72
2022/04/02 09:03:08;;;;;;;2.83;1.20;;;8.70;93.50;;;;;;5113163;28;20055;-71
2022/04/02 09:06:01;;;;;;;2.47;1.00;;;8.60;93.20;;;;;;5113155;28;20508;-72
2022/04/02 09:09:06;;;;;;;1.60;0.70;;;8.30;89.60;;;;;;5112999;28;20031;-72
2022/04/02 09:12:08;;;;;;;1.30;0.70;;;8.20;90.40;;;;;;5070350;28;20050;-72
2022/04/02 09:15:09;;;;;;;1.03;0.70;;;8.10;89.70;;;;;;5070309;28;20082;-72
2022/04/02 09:18:06;;;;;;;1.30;0.90;;;8.10;90.00;;;;;;5111695;28;20024;-72
2022/04/02 09:20:52;;;;;;;1.67;0.80;;;7.90;90.60;;;;;;5112980;28;20066;-72
2022/04/02 09:23:48;;;;;;;3.23;1.37;;;7.90;90.90;;;;;;5113145;28;20050;-72
2022/04/02 09:26:29;;;;;;;2.97;1.30;;;7.90;91.30;;;;;;5113174;28;20418;-71
2022/04/02 09:29:14;;;;;;;2.23;0.70;;;7.90;91.60;;;;;;5112963;28;20035;-71
2022/04/02 09:32:28;;;;;;;2.57;1.00;;;7.90;92.10;;;;;;5113018;28;20480;-72
2022/04/02 09:35:31;;;;;;;1.43;0.90;;;7.90;91.90;;;;;;5112346;28;20130;-71
2022/04/02 09:38:28;;;;;;;1.77;0.90;;;7.90;92.00;;;;;;5110291;28;20038;-71
2022/04/02 09:41:15;;;;;;;2.30;0.90;;;7.90;91.90;;;;;;5112141;28;20039;-72
2022/04/02 09:43:59;;;;;;;1.80;0.90;;;7.90;91.90;;;;;;5111992;28;20035;-72
2022/04/02 09:46:53;;;;;;;2.03;1.20;;;8.00;91.90;;;;;;5114120;28;20192;-71
2022/04/02 09:49:33;;;;;;;2.70;0.93;;;8.00;91.90;;;;;;5115380;28;20031;-71
2022/04/02 09:52:05;;;;;;;1.83;1.10;;;8.00;91.60;;;;;;5115203;28;20042;-72
2022/04/02 09:54:45;;;;;;;2.42;0.70;;;8.00;91.70;;;;;;5115254;28;20483;-72
2022/04/02 09:57:36;;;;;;;0.40;0.40;;;8.00;91.50;;;;;;5115122;28;20535;-71
2022/04/02 10:00:07;;;;;;;0.50;0.40;;;8.10;91.50;;;;;;5115303;28;20088;-72
2022/04/02 10:03:03;;;;;;;1.73;0.70;;;8.10;91.40;;;;;;5115312;28;20024;-72
2022/04/02 10:05:41;;;;;;;1.43;0.60;;;8.00;91.40;;;;;;5110677;28;20050;-71
2022/04/02 10:08:17;;;;;;;1.33;0.73;;;8.00;91.30;;;;;;5115291;28;20034;-72
2022/04/02 10:10:46;;;;;;;2.40;0.80;;;8.00;91.40;;;;;;5115521;28;20023;-72
2022/04/02 10:13:13;;;;;;;2.63;1.40;;;8.00;91.40;;;;;;5114667;28;20148;-71
2022/04/02 10:15:42;;;;;;;1.27;1.07;;;8.00;91.50;;;;;;5114977;28;20388;-72
2022/04/02 10:18:10;;;;;;;2.03;0.80;;;8.00;91.40;;;;;;5115124;28;20024;-72
2022/04/02 10:20:37;;;;;;;1.13;0.70;;;8.00;91.20;;;;;;5114979;28;20498;-72
2022/04/02 10:23:21;;;;;;;1.43;0.70;;;8.00;91.40;;;;;;5115148;28;20107;-72
2022/04/02 10:26:14;;;;;;;2.87;0.90;;;8.00;91.50;;;;;;5114882;28;20031;-72
2022/04/02 10:29:08;;;;;;;1.43;0.70;;;8.00;91.30;;;;;;5114999;28;20088;-71
2022/04/02 10:31:37;;;;;;;0.87;0.70;;;8.00;91.40;;;;;;5114730;28;20373;-71
2022/04/02 10:34:32;;;;;;;2.53;0.53;;;8.00;91.50;;;;;;5073773;28;1186089;-71
2022/04/02 10:37:17;;;;;;;1.90;0.80;;;8.00;91.80;;;;;;5115861;28;20058;-71
2022/04/02 10:39:58;;;;;;;2.23;1.50;;;8.00;91.60;;;;;;5115824;28;20171;-71
2022/04/02 10:42:40;;;;;;;2.00;1.33;;;8.10;91.50;;;;;;5115378;28;20036;-71
2022/04/02 10:45:14;;;;;;;3.17;1.10;;;8.10;91.60;;;;;;5115784;28;20097;-72
2022/04/02 10:48:06;;;;;;;2.23;1.23;;;8.10;92.00;;;;;;5115681;28;20020;-71
2022/04/02 10:50:32;;;;;;;2.53;1.10;;;8.20;91.90;;;;;;5115469;28;20032;-71
2022/04/02 10:53:01;;;;;;;2.13;1.07;;;8.20;92.40;;;;;;5115224;28;20042;-72
2022/04/02 10:55:28;;;;;;;1.20;0.80;;;8.20;92.40;;;;;;5115334;28;20032;-71
2022/04/02 10:57:59;;;;;;;1.57;0.97;;;8.30;92.30;;;;;;5114261;28;20035;-70
2022/04/02 11:00:26;;;;;;;1.80;0.80;;;8.40;92.30;;;;;;5115096;28;20028;-71
2022/04/02 11:03:03;;;;;;;1.90;1.00;;;8.40;92.40;;;;;;5114651;28;20031;-72
2022/04/02 11:05:34;;;;;;;1.60;0.80;;;8.50;92.20;;;;;;5114533;28;20081;-71
2022/04/02 11:08:12;;;;;;;1.87;0.90;;;8.70;97.90;;;;;;5115071;28;20111;-72
2022/04/02 11:10:38;;;;;;;2.87;1.40;;;8.50;92.00;;;;;;5115074;28;20258;-71
2022/04/02 11:13:09;;;;;;;1.87;1.00;;;;;;;;;;5114202;28;20079;-71
2022/04/02 11:15:42;;;;;;;2.33;1.30;;;;;;;;;;5114584;28;20081;-71
2022/04/02 11:18:18;;;;;;;3.60;1.30;;;8.70;92.30;;;;;;5114621;28;20051;-72
2022/04/02 11:20:44;;;;;;;2.50;1.40;;;8.80;93.20;;;;;;5114851;28;20042;-72
2022/04/02 11:23:21;;;;;;;3.77;1.80;;;8.90;93.40;;;;;;5114616;28;20039;-71
2022/04/02 11:25:51;;;;;;;1.80;1.10;;;9.00;93.80;;;;;;5114437;28;20028;-71
2022/04/02 11:28:21;;;;;;;3.23;1.30;;;9.00;94.40;;;;;;5114607;28;20038;-71
2022/04/02 11:31:03;;;;;;;4.77;1.40;;;9.00;96.80;;;;;;5114533;28;20028;-71
2022/04/02 11:33:32;;;;;;;3.67;1.37;;;8.90;91.30;;;;;;5114364;28;20082;-71
2022/04/02 11:36:06;;;;;;;2.67;1.30;;;8.90;92.20;;;;;;5114572;28;20824;-72
2022/04/02 11:38:53;;;;;;;4.17;1.23;;;8.90;92.30;;;;;;5114435;28;20383;-72
2022/04/02 11:41:21;;;;;;;3.73;1.30;;;8.90;92.40;;;;;;5114261;28;20078;-72
2022/04/02 11:43:48;;;;;;;1.77;1.10;;;9.00;92.50;;;;;;5114306;28;20059;-71
2022/04/02 11:46:17;;;;;;;3.97;1.70;;;9.00;92.60;;;;;;5114517;28;20031;-72
2022/04/02 11:48:57;;;;;;;3.97;1.67;;;9.00;93.50;;;;;;5114268;28;20042;-71
2022/04/02 11:51:28;;;;;;;5.43;1.97;;;8.90;91.00;;;;;;5114012;28;20487;-71
2022/04/02 11:54:10;;;;;;;4.30;1.80;;;8.90;91.30;;;;;;5111926;28;20051;-72
2022/04/02 11:56:37;;;;;;;3.73;2.00;;;9.00;91.20;;;;;;5110089;28;20373;-72
2022/04/02 11:59:08;;;;;;;4.33;2.10;;;9.00;91.10;;;;;;5111029;28;20442;-72
2022/04/02 12:01:44;;;;;;;3.93;2.20;;;9.00;91.20;;;;;;5112783;28;20427;-71
2022/04/02 12:04:13;;;;;;;3.90;1.40;;;9.10;91.60;;;;;;5113086;28;20448;-72
2022/04/02 12:06:47;;;;;;;7.10;1.60;;;9.10;91.10;;;;;;5112741;28;20059;-73
2022/04/02 12:09:19;;;;;;;3.03;1.83;;;9.10;91.30;;;;;;5112823;28;20032;-72
2022/04/02 12:12:00;;;;;;;2.77;1.80;;;9.20;91.60;;;;;;5113421;28;20047;-71
2022/04/02 12:14:40;;;;;;;3.80;1.90;;;9.20;91.60;;;;;;5113723;28;20036;-72
2022/04/02 12:17:11;;;;;;;1.70;1.10;;;9.20;91.20;;;;;;5112611;28;20032;-71
2022/04/02 12:19:47;;;;;;;2.60;1.20;;;9.30;90.60;;;;;;5113050;28;20328;-71
2022/04/02 12:22:33;;;;;;;0.77;0.70;;;9.30;90.10;;;;;;5113315;28;20111;-70
2022/04/02 12:25:10;;;;;;;2.97;1.40;;;9.30;89.30;;;;;;5113137;28;20063;-71
2022/04/02 12:27:38;;;;;;;2.37;1.10;;;9.40;87.80;;;;;;5113447;28;20114;-71
2022/04/02 12:30:09;;;;;;;3.70;1.10;;;9.40;87.30;;;;;;5113210;28;20038;-71
2022/04/02 12:32:42;;;;;;;3.57;0.90;;;9.40;86.90;;;;;;5112956;28;20055;-71
2022/04/02 12:35:23;;;;;;;1.38;0.90;;;9.40;85.80;;;;;;5113450;28;20104;-71
2022/04/02 12:37:54;;;;;;;1.33;0.70;;;9.40;85.30;;;;;;5112592;28;20445;-70
2022/04/02 12:40:23;;;;;;;2.13;1.00;;;9.40;85.10;;;;;;5112928;28;20420;-71
2022/04/02 12:43:10;;;;;;;2.00;0.80;;;9.50;85.00;;;;;;5112395;28;20043;-71
2022/04/02 12:45:37;;;;;;;2.53;1.20;;;9.40;84.90;;;;;;5111996;28;20086;-71
2022/04/02 12:48:04;;;;;;;1.67;0.80;;;9.50;85.80;;;;;;5111158;28;20454;-72
2022/04/02 12:50:37;;;;;;;2.87;1.00;;;9.50;86.30;;;;;;5110052;28;20095;-71
2022/04/02 12:53:04;;;;;;;3.13;1.00;;;9.60;85.90;;;;;;5111167;28;20090;-71
2022/04/02 12:55:32;;;;;;;3.20;1.40;;;9.60;85.70;;;;;;5113231;28;20034;-72
2022/04/02 12:58:12;;;;;;;3.77;1.07;;;9.70;84.90;;;;;;5113105;28;20043;-71
2022/04/02 13:00:42;;;;;;;2.27;1.30;;;9.80;84.40;;;;;;5112780;28;20023;-72
2022/04/02 13:03:09;;;;;;;3.87;1.47;;;9.80;84.10;;;;;;5112712;28;20035;-71
2022/04/02 13:05:56;;;;;;;3.93;1.13;;;9.80;83.40;;;;;;5112223;28;20031;-72
2022/04/02 13:08:27;;;;;;;2.27;0.93;;;9.90;82.80;;;;;;5112701;28;20492;-72
2022/04/02 13:11:01;;;;;;;1.77;0.97;;;9.90;83.10;;;;;;5113381;28;20047;-72
2022/04/02 13:13:40;;;;;;;5.03;1.27;;;10.00;81.20;;;;;;5112689;28;20147;-70
2022/04/02 13:16:09;;;;;;;2.37;1.27;;;10.00;82.40;;;;;;5112913;28;20108;-71
2022/04/02 13:21:37;;;;;;;11.07;7.97;;;10.10;81.40;;;;;;5114739;28;20035;-71
2022/04/02 13:24:27;;;;;;;19.17;11.80;;;10.10;80.70;;;;;;5116331;28;20031;-73
2022/04/02 13:27:10;;;;;;;21.63;10.47;;;10.00;80.20;;;;;;5116162;28;20097;-71
2022/04/02 13:29:46;;;;;;;33.58;18.90;;;10.00;79.90;;;;;;5116002;28;20039;-71
2022/04/02 13:32:24;;;;;;;10.77;6.60;;;10.00;79.80;;;;;;5115730;28;20512;-71
2022/04/02 13:35:08;;;;;;;8.03;4.23;;;10.10;79.80;;;;;;5115812;28;20492;-71